Home   Weather   Adams Wash   Past weeks
Flag for USA

Past Weather in Adams Wash, Utah, USA — Yesterday and Last 2 Weeks

Currently: 73 °F. Clear. (Weather station: Colorado City Municipal Airport, USA). See more current weather

Past Weather in Adams Wash — Graph

°F

Adams Wash Temperature Yesterday

Maximum temperature yesterday: 90 °F (at 3:15 pm)
Minimum temperature yesterday: 52 °F (at 7:35 am)
Average temperature yesterday: 73 °F

High & Low Weather Summary for the Past Weeks

 TemperatureHumidityPressure
High97 °F (Sep 12, 3:35 pm)100% (Sep 19, 1:35 am)30.46 "Hg (Sep 19, 1:35 am)
Low41 °F (Sep 21, 4:55 am)10% (Sep 14, 4:15 pm)29.98 "Hg (Sep 16, 4:35 pm)
Average71 °F32%30.17 "Hg
* Reported Sep 10 8:15 pm — Sep 25 8:15 pm, Adams Wash. Weather by CustomWeather, © 2021

Note: Actual official high and low records may vary slightly from our data, if they occured in-between our weather recording intervals... More about our weather records

Adams Wash Weather History for the Previous 24 Hours

Scroll right to see more
 ConditionsComfort  
Time TempWeatherWind HumidityBarometerVisibility
8:15 pm
Sat, Sep 25
79 °FClear.6 mph28%30.11 "Hg10 mi
7:55 pm79 °FClear.9 mph28%30.11 "Hg10 mi
7:35 pm81 °FClear.9 mph26%30.11 "Hg10 mi
7:15 pm82 °FSunny.9 mph25%30.09 "Hg10 mi
6:55 pm82 °FSunny.12 mph21%30.09 "Hg10 mi
6:15 pm86 °FSunny.13 mph15%30.08 "Hg10 mi
5:55 pm88 °FSunny.10 mph15%30.08 "Hg10 mi
5:35 pm90 °FSunny.9 mph13%30.08 "Hg10 mi
5:15 pm90 °FSunny.6 mph13%30.08 "Hg10 mi
4:55 pm90 °FSunny.10 mph13%30.09 "Hg10 mi
4:35 pm90 °FSunny.9 mph13%30.09 "Hg10 mi
4:15 pm90 °FSunny.10 mph13%30.10 "Hg10 mi
3:55 pm90 °FSunny.10 mph13%30.11 "Hg10 mi
3:35 pm90 °FSunny.10 mph13%30.11 "Hg10 mi
3:15 pm91 °FSunny.13 mph12%30.12 "Hg10 mi
2:55 pm90 °FSunny.10 mph13%30.12 "Hg10 mi
2:35 pm90 °FSunny.8 mph13%30.13 "Hg10 mi
2:15 pm91 °FSunny.6 mph12%30.15 "Hg10 mi
1:55 pm91 °FSunny.6 mph12%30.15 "Hg10 mi
1:35 pm91 °FSunny.6 mph12%30.16 "Hg10 mi
1:15 pm90 °FSunny.6 mph13%30.18 "Hg10 mi
12:55 pm90 °FSunny.No wind13%30.18 "Hg10 mi
12:35 pm88 °FSunny.3 mph13%30.19 "Hg10 mi
11:55 am84 °FSunny.No wind15%30.20 "Hg10 mi
11:35 am82 °FSunny.7 mph16%30.20 "Hg10 mi
11:15 am82 °FSunny.5 mph16%30.21 "Hg10 mi
10:55 am81 °FSunny.3 mph17%30.21 "Hg10 mi
10:35 am77 °FSunny.No wind19%30.21 "Hg10 mi
10:15 am75 °FSunny.No wind21%30.21 "Hg10 mi
9:55 am72 °FSunny.No wind23%30.21 "Hg10 mi
9:35 am68 °FSunny.6 mph26%30.21 "Hg10 mi
9:15 am64 °FSunny.No wind30%30.21 "Hg10 mi
8:55 am61 °FSunny.6 mph34%30.22 "Hg10 mi
8:35 am55 °FSunny.No wind41%30.22 "Hg10 mi
8:15 am52 °FSunny.6 mph47%30.21 "Hg10 mi
7:55 am48 °FSunny.3 mph50%30.21 "Hg10 mi
7:35 am50 °FSunny.No wind50%30.21 "Hg10 mi
7:15 am52 °FClear.5 mph47%30.21 "Hg10 mi
6:55 am48 °FClear.6 mph50%30.21 "Hg10 mi
6:15 am54 °FClear.6 mph41%30.19 "Hg10 mi
5:55 am52 °FClear.6 mph47%30.19 "Hg10 mi
5:35 am52 °FClear.No wind47%30.19 "Hg10 mi
5:15 am52 °FClear.3 mph44%30.18 "Hg10 mi
4:55 am54 °FClear.7 mph44%30.18 "Hg10 mi
4:35 am50 °FClear.8 mph47%30.18 "Hg10 mi
4:15 am52 °FClear.10 mph44%30.18 "Hg10 mi
3:55 am54 °FClear.3 mph38%30.18 "Hg10 mi
3:35 am54 °FClear.5 mph38%30.18 "Hg10 mi
3:15 am52 °FClear.12 mph41%30.18 "Hg10 mi
2:55 am52 °FClear.5 mph41%30.18 "Hg10 mi
2:15 am59 °FClear.6 mph34%30.18 "Hg10 mi
1:55 am55 °FClear.6 mph38%30.18 "Hg10 mi
1:35 am52 °FClear.7 mph44%30.19 "Hg10 mi
1:15 am55 °FClear.3 mph33%30.18 "Hg10 mi
12:55 am55 °FClear.6 mph33%30.19 "Hg10 mi
12:35 am57 °FClear.6 mph31%30.19 "Hg10 mi
12:15 am61 °FClear.6 mph29%30.18 "Hg10 mi
11:55 pm
Fri, Sep 24
59 °FClear.No wind31%30.18 "Hg10 mi
11:15 pm61 °FClear.3 mph29%30.18 "Hg10 mi
10:55 pm59 °FClear.5 mph31%30.18 "Hg10 mi
10:35 pm59 °FClear.6 mph29%30.18 "Hg10 mi
10:15 pm59 °FClear.10 mph29%30.17 "Hg10 mi
9:55 pm63 °FClear.No wind27%30.17 "Hg10 mi
9:35 pm64 °FClear.5 mph26%30.16 "Hg10 mi
9:15 pm68 °FClear.3 mph21%30.16 "Hg10 mi
Weather by CustomWeather, © 2021

See weather overview